DFEO weather

Zorgo Airport
Zorgo, Ganzourgou, Burkina Faso

Public forecast

Using degrees Celsius for public forecast. Weather courtesy of forecast.io.

Closest aviation weather report (METAR) to Zorgo Airport

Closest report is Ouagadougou Airport, 52.9 nm (98.0 km) W. Retrieved 2020/02/18 21:00 UTC (19 minutes ago):

DFFD 182100Z 04004KT 8000 NSC 28/02 Q1013 NOSIG

Closest aviation forecast (TAF) to Zorgo Airport

Closest forecast is Ouagadougou Airport, 52.9 nm (98.0 km) W. Retrieved 2020/02/18 18:00 UTC (3 hours ago):

TAF DFFD 181700Z 1818/1924 06010KT 8000 NSC TEMPO 1818/1821 4000 HZ TEMPO 1906/1910 3500 HZ